sensor_id;sensor_type;location;lat;lon;timestamp;pressure;altitude;pressure_sealevel;temperature;humidity
62011;BME280;47967;51.756;10.174;2022-07-17T00:01:19;100819.59;;;7.77;87.49
62011;BME280;47967;51.756;10.174;2022-07-17T00:05:23;100820.28;;;7.79;87.94
62011;BME280;47967;51.756;10.174;2022-07-17T00:09:25;100825.03;;;7.85;88.26
62011;BME280;47967;51.756;10.174;2022-07-17T00:13:29;100816.97;;;7.85;88.39
62011;BME280;47967;51.756;10.174;2022-07-17T00:17:32;100841.00;;;7.68;87.07
62011;BME280;47967;51.756;10.174;2022-07-17T00:21:36;100827.81;;;7.57;88.55
62011;BME280;47967;51.756;10.174;2022-07-17T00:25:38;100831.88;;;7.61;89.43
62011;BME280;47967;51.756;10.174;2022-07-17T00:29:43;100826.66;;;7.60;89.71
62011;BME280;47967;51.756;10.174;2022-07-17T00:33:45;100820.69;;;7.48;88.55
62011;BME280;47967;51.756;10.174;2022-07-17T00:37:48;100819.28;;;7.26;87.61
62011;BME280;47967;51.756;10.174;2022-07-17T00:41:51;100814.81;;;7.16;88.06
62011;BME280;47967;51.756;10.174;2022-07-17T00:45:57;100821.13;;;7.07;87.83
62011;BME280;47967;51.756;10.174;2022-07-17T00:49:59;100820.03;;;7.00;88.11
62011;BME280;47967;51.756;10.174;2022-07-17T00:54:03;100824.22;;;6.84;89.33
62011;BME280;47967;51.756;10.174;2022-07-17T00:58:11;100811.75;;;6.65;90.97
62011;BME280;47967;51.756;10.174;2022-07-17T01:02:16;100818.34;;;6.71;92.18
62011;BME280;47967;51.756;10.174;2022-07-17T01:06:18;100818.59;;;6.78;92.51
62011;BME280;47967;51.756;10.174;2022-07-17T01:10:21;100815.06;;;6.77;92.06
62011;BME280;47967;51.756;10.174;2022-07-17T01:14:25;100814.44;;;6.65;91.14
62011;BME280;47967;51.756;10.174;2022-07-17T01:18:30;100816.16;;;6.56;90.47
62011;BME280;47967;51.756;10.174;2022-07-17T01:22:40;100819.84;;;6.46;90.13
62011;BME280;47967;51.756;10.174;2022-07-17T01:26:44;100822.47;;;6.28;89.28
62011;BME280;47967;51.756;10.174;2022-07-17T01:30:48;100816.72;;;6.13;89.51
62011;BME280;47967;51.756;10.174;2022-07-17T01:34:52;100820.44;;;6.02;91.00
62011;BME280;47967;51.756;10.174;2022-07-17T01:38:56;100815.34;;;5.99;91.96
62011;BME280;47967;51.756;10.174;2022-07-17T01:42:59;100815.91;;;6.02;93.14
62011;BME280;47967;51.756;10.174;2022-07-17T01:47:03;100832.25;;;5.99;93.11
62011;BME280;47967;51.756;10.174;2022-07-17T01:51:06;100829.44;;;5.91;91.79
62011;BME280;47967;51.756;10.174;2022-07-17T01:55:12;100831.13;;;5.82;91.14
62011;BME280;47967;51.756;10.174;2022-07-17T01:59:15;100825.22;;;5.79;91.60
62011;BME280;47967;51.756;10.174;2022-07-17T02:03:18;100822.97;;;5.74;92.21
62011;BME280;47967;51.756;10.174;2022-07-17T02:07:20;100826.47;;;5.84;94.19
62011;BME280;47967;51.756;10.174;2022-07-17T02:11:25;100831.69;;;5.76;94.36
62011;BME280;47967;51.756;10.174;2022-07-17T02:15:28;100832.16;;;5.71;93.71
62011;BME280;47967;51.756;10.174;2022-07-17T02:19:30;100831.28;;;5.71;93.87
62011;BME280;47967;51.756;10.174;2022-07-17T02:23:33;100839.06;;;5.64;93.07
62011;BME280;47967;51.756;10.174;2022-07-17T02:27:38;100842.84;;;5.61;92.46
62011;BME280;47967;51.756;10.174;2022-07-17T02:31:40;100839.63;;;5.58;92.04
62011;BME280;47967;51.756;10.174;2022-07-17T02:35:43;100846.63;;;5.49;92.57
62011;BME280;47967;51.756;10.174;2022-07-17T02:39:46;100839.16;;;5.43;92.80
62011;BME280;47967;51.756;10.174;2022-07-17T02:43:55;100848.06;;;5.43;92.07
62011;BME280;47967;51.756;10.174;2022-07-17T02:47:58;100844.81;;;5.40;92.34
62011;BME280;47967;51.756;10.174;2022-07-17T02:52:01;100841.28;;;5.39;92.39
62011;BME280;47967;51.756;10.174;2022-07-17T02:56:04;100831.00;;;5.25;92.14
62011;BME280;47967;51.756;10.174;2022-07-17T03:00:10;100841.25;;;5.20;93.22
62011;BME280;47967;51.756;10.174;2022-07-17T03:04:13;100844.22;;;5.17;93.40
62011;BME280;47967;51.756;10.174;2022-07-17T03:08:16;100843.09;;;5.19;94.06
62011;BME280;47967;51.756;10.174;2022-07-17T03:12:18;100845.63;;;5.21;94.23
62011;BME280;47967;51.756;10.174;2022-07-17T03:16:22;100851.28;;;5.18;93.58
62011;BME280;47967;51.756;10.174;2022-07-17T03:20:25;100843.66;;;5.13;93.61
62011;BME280;47967;51.756;10.174;2022-07-17T03:24:27;100843.94;;;5.20;93.60
62011;BME280;47967;51.756;10.174;2022-07-17T03:28:30;100852.53;;;5.23;93.30
62011;BME280;47967;51.756;10.174;2022-07-17T03:32:34;100855.59;;;5.09;92.54
62011;BME280;47967;51.756;10.174;2022-07-17T03:36:37;100850.13;;;5.10;92.23
62011;BME280;47967;51.756;10.174;2022-07-17T03:40:40;100852.94;;;5.19;93.39
62011;BME280;47967;51.756;10.174;2022-07-17T03:44:42;100857.19;;;5.21;93.79
62011;BME280;47967;51.756;10.174;2022-07-17T03:48:46;100871.56;;;5.30;94.02
62011;BME280;47967;51.756;10.174;2022-07-17T03:52:49;100873.84;;;5.44;94.31
62011;BME280;47967;51.756;10.174;2022-07-17T03:56:51;100873.97;;;5.53;93.52
62011;BME280;47967;51.756;10.174;2022-07-17T04:00:54;100882.31;;;5.59;92.77
62011;BME280;47967;51.756;10.174;2022-07-17T04:04:58;100884.00;;;5.70;92.45
62011;BME280;47967;51.756;10.174;2022-07-17T04:09:01;100879.22;;;5.84;92.75
62011;BME280;47967;51.756;10.174;2022-07-17T04:13:03;100880.91;;;5.95;92.50
62011;BME280;47967;51.756;10.174;2022-07-17T04:17:06;100885.28;;;6.05;92.69
62011;BME280;47967;51.756;10.174;2022-07-17T04:21:10;100885.81;;;6.29;92.64
62011;BME280;47967;51.756;10.174;2022-07-17T04:25:14;100891.69;;;6.52;92.64
62011;BME280;47967;51.756;10.174;2022-07-17T04:29:17;100902.19;;;6.73;92.36
62011;BME280;47967;51.756;10.174;2022-07-17T04:33:19;100895.06;;;6.92;92.19
62011;BME280;47967;51.756;10.174;2022-07-17T04:37:23;100905.25;;;7.16;91.59
62011;BME280;47967;51.756;10.174;2022-07-17T04:41:26;100908.81;;;7.34;91.08
62011;BME280;47967;51.756;10.174;2022-07-17T04:45:29;100909.09;;;7.59;90.58
62011;BME280;47967;51.756;10.174;2022-07-17T04:49:32;100918.75;;;7.88;90.16
62011;BME280;47967;51.756;10.174;2022-07-17T04:53:36;100912.97;;;8.19;88.68
62011;BME280;47967;51.756;10.174;2022-07-17T04:57:39;100921.69;;;8.39;87.51
62011;BME280;47967;51.756;10.174;2022-07-17T05:01:42;100913.91;;;8.54;86.70
62011;BME280;47967;51.756;10.174;2022-07-17T05:05:44;100902.41;;;8.70;86.76
62011;BME280;47967;51.756;10.174;2022-07-17T05:09:48;100891.41;;;8.90;85.91
62011;BME280;47967;51.756;10.174;2022-07-17T05:13:51;100885.41;;;8.96;85.68
62011;BME280;47967;51.756;10.174;2022-07-17T05:17:55;100870.78;;;9.07;85.29
62011;BME280;47967;51.756;10.174;2022-07-17T05:21:58;100863.94;;;9.21;85.09
62011;BME280;47967;51.756;10.174;2022-07-17T05:26:02;100871.69;;;9.32;85.15
62011;BME280;47967;51.756;10.174;2022-07-17T05:30:05;100890.09;;;9.45;84.93
62011;BME280;47967;51.756;10.174;2022-07-17T05:34:08;100923.59;;;9.42;85.23
62011;BME280;47967;51.756;10.174;2022-07-17T05:38:11;100925.47;;;9.58;85.04
62011;BME280;47967;51.756;10.174;2022-07-17T05:42:15;100939.47;;;9.78;83.61
62011;BME280;47967;51.756;10.174;2022-07-17T05:46:17;100936.84;;;10.03;82.51
62011;BME280;47967;51.756;10.174;2022-07-17T05:50:20;100937.34;;;10.32;81.13
62011;BME280;47967;51.756;10.174;2022-07-17T05:54:23;100915.94;;;10.47;80.25
62011;BME280;47967;51.756;10.174;2022-07-17T05:58:26;100908.94;;;10.77;79.31
62011;BME280;47967;51.756;10.174;2022-07-17T06:02:29;100918.13;;;11.08;79.01
62011;BME280;47967;51.756;10.174;2022-07-17T06:06:32;100904.72;;;11.23;78.98
62011;BME280;47967;51.756;10.174;2022-07-17T06:10:35;100908.19;;;11.40;78.20
62011;BME280;47967;51.756;10.174;2022-07-17T06:14:40;100917.91;;;11.57;77.07
62011;BME280;47967;51.756;10.174;2022-07-17T06:18:43;100903.72;;;11.78;76.50
62011;BME280;47967;51.756;10.174;2022-07-17T06:22:46;100908.91;;;12.11;75.60
62011;BME280;47967;51.756;10.174;2022-07-17T06:26:48;100914.09;;;12.36;74.01
62011;BME280;47967;51.756;10.174;2022-07-17T06:30:53;100908.63;;;12.59;73.26
62011;BME280;47967;51.756;10.174;2022-07-17T06:34:56;100893.25;;;12.75;72.31
62011;BME280;47967;51.756;10.174;2022-07-17T06:39:02;100899.22;;;13.00;70.87
62011;BME280;47967;51.756;10.174;2022-07-17T06:43:05;100897.22;;;13.39;69.74
62011;BME280;47967;51.756;10.174;2022-07-17T06:47:09;100891.69;;;13.69;69.20
62011;BME280;47967;51.756;10.174;2022-07-17T06:51:12;100899.66;;;13.92;68.03
62011;BME280;47967;51.756;10.174;2022-07-17T06:55:14;100903.91;;;14.01;67.69
62011;BME280;47967;51.756;10.174;2022-07-17T06:59:17;100908.41;;;14.16;67.98
62011;BME280;47967;51.756;10.174;2022-07-17T07:03:21;100912.72;;;14.32;67.31
62011;BME280;47967;51.756;10.174;2022-07-17T07:07:23;100911.09;;;14.37;66.88
62011;BME280;47967;51.756;10.174;2022-07-17T07:11:26;100920.81;;;14.53;66.69
62011;BME280;47967;51.756;10.174;2022-07-17T07:15:29;100920.44;;;14.56;65.46
62011;BME280;47967;51.756;10.174;2022-07-17T07:19:33;100915.50;;;14.67;64.87
62011;BME280;47967;51.756;10.174;2022-07-17T07:23:35;100908.56;;;14.64;65.18
62011;BME280;47967;51.756;10.174;2022-07-17T07:27:38;100905.44;;;14.96;64.11
62011;BME280;47967;51.756;10.174;2022-07-17T07:31:40;100904.13;;;15.27;63.58
62011;BME280;47967;51.756;10.174;2022-07-17T07:35:44;100894.31;;;15.39;63.11
62011;BME280;47967;51.756;10.174;2022-07-17T07:39:47;100898.59;;;15.62;62.36
62011;BME280;47967;51.756;10.174;2022-07-17T07:43:49;100889.38;;;15.69;62.05
62011;BME280;47967;51.756;10.174;2022-07-17T07:47:52;100885.72;;;16.04;61.39
62011;BME280;47967;51.756;10.174;2022-07-17T07:51:56;100890.53;;;16.22;60.57
62011;BME280;47967;51.756;10.174;2022-07-17T07:56:04;100886.97;;;16.42;60.37
62011;BME280;47967;51.756;10.174;2022-07-17T08:00:08;100882.13;;;16.44;59.58
62011;BME280;47967;51.756;10.174;2022-07-17T08:04:15;100899.31;;;16.58;59.11
62011;BME280;47967;51.756;10.174;2022-07-17T08:08:19;100901.16;;;16.77;58.52
62011;BME280;47967;51.756;10.174;2022-07-17T08:12:22;100897.38;;;16.92;58.07
62011;BME280;47967;51.756;10.174;2022-07-17T08:16:45;100898.19;;;16.86;56.59
62011;BME280;47967;51.756;10.174;2022-07-17T08:20:48;100898.03;;;17.39;55.85
62011;BME280;47967;51.756;10.174;2022-07-17T08:24:52;100899.25;;;17.43;55.77
62011;BME280;47967;51.756;10.174;2022-07-17T08:28:54;100898.38;;;16.98;54.52
62011;BME280;47967;51.756;10.174;2022-07-17T08:32:57;100906.00;;;16.69;56.37
62011;BME280;47967;51.756;10.174;2022-07-17T08:37:00;100895.25;;;16.87;55.58
62011;BME280;47967;51.756;10.174;2022-07-17T08:41:04;100893.69;;;17.18;54.57
62011;BME280;47967;51.756;10.174;2022-07-17T08:45:07;100883.59;;;17.64;53.38
62011;BME280;47967;51.756;10.174;2022-07-17T08:49:10;100887.53;;;18.07;52.31
62011;BME280;47967;51.756;10.174;2022-07-17T08:53:14;100895.34;;;18.29;51.26
62011;BME280;47967;51.756;10.174;2022-07-17T08:57:18;100897.69;;;18.00;51.94
62011;BME280;47967;51.756;10.174;2022-07-17T09:01:23;100903.47;;;17.78;51.33
62011;BME280;47967;51.756;10.174;2022-07-17T09:05:28;100903.81;;;18.20;50.86
62011;BME280;47967;51.756;10.174;2022-07-17T09:09:32;100900.38;;;18.50;50.66
62011;BME280;47967;51.756;10.174;2022-07-17T09:13:36;100906.97;;;19.24;49.26
62011;BME280;47967;51.756;10.174;2022-07-17T09:17:47;100909.00;;;19.77;47.69
62011;BME280;47967;51.756;10.174;2022-07-17T09:21:50;100905.66;;;20.06;45.93
62011;BME280;47967;51.756;10.174;2022-07-17T09:25:55;100899.47;;;20.58;43.56
62011;BME280;47967;51.756;10.174;2022-07-17T09:30:01;100895.66;;;20.71;44.19
62011;BME280;47967;51.756;10.174;2022-07-17T09:34:04;100895.66;;;20.71;43.00
62011;BME280;47967;51.756;10.174;2022-07-17T09:38:07;100887.09;;;20.31;44.75
62011;BME280;47967;51.756;10.174;2022-07-17T09:42:11;100893.66;;;20.30;43.72
62011;BME280;47967;51.756;10.174;2022-07-17T09:46:26;100894.34;;;20.26;43.73
62011;BME280;47967;51.756;10.174;2022-07-17T09:50:31;100885.66;;;20.29;43.97
62011;BME280;47967;51.756;10.174;2022-07-17T09:54:34;100884.91;;;19.98;45.15
62011;BME280;47967;51.756;10.174;2022-07-17T09:58:39;100877.44;;;19.75;42.93
62011;BME280;47967;51.756;10.174;2022-07-17T10:02:45;100876.94;;;19.96;41.33
62011;BME280;47967;51.756;10.174;2022-07-17T10:06:48;100869.56;;;20.09;42.48
62011;BME280;47967;51.756;10.174;2022-07-17T10:10:51;100878.13;;;20.00;42.77
62011;BME280;47967;51.756;10.174;2022-07-17T10:14:53;100878.28;;;19.75;42.64
62011;BME280;47967;51.756;10.174;2022-07-17T10:18:59;100872.69;;;19.70;43.34
62011;BME280;47967;51.756;10.174;2022-07-17T10:23:12;100879.09;;;19.76;41.27
62011;BME280;47967;51.756;10.174;2022-07-17T10:27:22;100879.34;;;20.28;41.24
62011;BME280;47967;51.756;10.174;2022-07-17T10:31:26;100871.38;;;20.39;41.62
62011;BME280;47967;51.756;10.174;2022-07-17T10:35:42;100867.53;;;20.16;41.55
62011;BME280;47967;51.756;10.174;2022-07-17T10:40:03;100864.56;;;20.29;41.21
62011;BME280;47967;51.756;10.174;2022-07-17T10:44:06;100874.56;;;20.12;42.25
62011;BME280;47967;51.756;10.174;2022-07-17T10:48:10;100868.84;;;19.90;40.27
62011;BME280;47967;51.756;10.174;2022-07-17T10:52:15;100863.97;;;20.04;41.15
62011;BME280;47967;51.756;10.174;2022-07-17T10:56:18;100866.97;;;20.50;41.76
62011;BME280;47967;51.756;10.174;2022-07-17T11:00:21;100858.84;;;20.43;41.05
62011;BME280;47967;51.756;10.174;2022-07-17T11:04:24;100856.91;;;20.91;40.17
62011;BME280;47967;51.756;10.174;2022-07-17T11:08:48;100865.50;;;20.71;40.31
62011;BME280;47967;51.756;10.174;2022-07-17T11:12:51;100864.19;;;20.85;41.18
62011;BME280;47967;51.756;10.174;2022-07-17T11:16:54;100857.50;;;20.93;41.17
62011;BME280;47967;51.756;10.174;2022-07-17T11:20:59;100872.56;;;20.78;40.70
62011;BME280;47967;51.756;10.174;2022-07-17T11:25:05;100862.88;;;20.88;40.34
62011;BME280;47967;51.756;10.174;2022-07-17T11:29:08;100858.28;;;21.05;40.53
62011;BME280;47967;51.756;10.174;2022-07-17T11:33:14;100840.44;;;21.32;40.71
62011;BME280;47967;51.756;10.174;2022-07-17T11:37:17;100850.00;;;21.58;39.42
62011;BME280;47967;51.756;10.174;2022-07-17T11:41:23;100850.00;;;21.29;39.92
62011;BME280;47967;51.756;10.174;2022-07-17T11:45:32;100840.25;;;21.38;38.54
62011;BME280;47967;51.756;10.174;2022-07-17T11:49:37;100848.38;;;21.74;37.93
62011;BME280;47967;51.756;10.174;2022-07-17T11:53:41;100839.53;;;21.72;38.63
62011;BME280;47967;51.756;10.174;2022-07-17T11:57:47;100836.53;;;21.90;38.41
62011;BME280;47967;51.756;10.174;2022-07-17T12:01:50;100838.97;;;22.04;37.31
62011;BME280;47967;51.756;10.174;2022-07-17T12:05:52;100835.78;;;21.78;37.62
62011;BME280;47967;51.756;10.174;2022-07-17T12:09:55;100825.94;;;22.16;37.35
62011;BME280;47967;51.756;10.174;2022-07-17T12:14:05;100825.03;;;22.28;36.70
62011;BME280;47967;51.756;10.174;2022-07-17T12:18:19;100817.63;;;22.11;36.83
62011;BME280;47967;51.756;10.174;2022-07-17T12:22:22;100820.03;;;22.25;36.29
62011;BME280;47967;51.756;10.174;2022-07-17T12:26:25;100814.88;;;22.11;35.62
62011;BME280;47967;51.756;10.174;2022-07-17T12:30:30;100822.91;;;22.35;35.88
62011;BME280;47967;51.756;10.174;2022-07-17T12:34:34;100812.22;;;22.55;36.23
62011;BME280;47967;51.756;10.174;2022-07-17T12:38:36;100811.47;;;22.60;35.07
62011;BME280;47967;51.756;10.174;2022-07-17T12:42:39;100801.22;;;22.55;35.70
62011;BME280;47967;51.756;10.174;2022-07-17T12:46:43;100794.88;;;22.99;34.69
62011;BME280;47967;51.756;10.174;2022-07-17T12:50:46;100792.44;;;23.03;34.80
62011;BME280;47967;51.756;10.174;2022-07-17T12:54:48;100804.34;;;22.81;34.04
62011;BME280;47967;51.756;10.174;2022-07-17T12:58:51;100792.47;;;22.81;33.71
62011;BME280;47967;51.756;10.174;2022-07-17T13:03:03;100788.91;;;23.30;33.04
62011;BME280;47967;51.756;10.174;2022-07-17T13:07:06;100793.22;;;23.48;33.93
62011;BME280;47967;51.756;10.174;2022-07-17T13:11:09;100796.94;;;23.31;34.58
62011;BME280;47967;51.756;10.174;2022-07-17T13:15:12;100799.28;;;23.23;34.84
62011;BME280;47967;51.756;10.174;2022-07-17T13:19:16;100785.03;;;23.03;33.89
62011;BME280;47967;51.756;10.174;2022-07-17T13:23:18;100780.97;;;23.33;32.07
62011;BME280;47967;51.756;10.174;2022-07-17T13:27:21;100785.41;;;23.67;32.42
62011;BME280;47967;51.756;10.174;2022-07-17T13:31:23;100777.03;;;23.89;31.83
62011;BME280;47967;51.756;10.174;2022-07-17T13:35:27;100782.38;;;23.69;32.05
62011;BME280;47967;51.756;10.174;2022-07-17T13:39:30;100787.19;;;23.51;31.06
62011;BME280;47967;51.756;10.174;2022-07-17T13:43:33;100775.72;;;23.32;32.25
62011;BME280;47967;51.756;10.174;2022-07-17T13:47:36;100769.91;;;23.93;32.22
62011;BME280;47967;51.756;10.174;2022-07-17T13:51:40;100767.47;;;24.50;30.77
62011;BME280;47967;51.756;10.174;2022-07-17T13:55:43;100778.84;;;24.64;30.59
62011;BME280;47967;51.756;10.174;2022-07-17T13:59:52;100773.41;;;24.26;31.09
62011;BME280;47967;51.756;10.174;2022-07-17T14:03:55;100785.88;;;24.34;30.83
62011;BME280;47967;51.756;10.174;2022-07-17T14:07:59;100775.59;;;24.67;31.25
62011;BME280;47967;51.756;10.174;2022-07-17T14:12:02;100778.75;;;24.43;30.77
62011;BME280;47967;51.756;10.174;2022-07-17T14:16:05;100756.13;;;25.36;29.83
62011;BME280;47967;51.756;10.174;2022-07-17T14:20:09;100765.56;;;25.61;28.71
62011;BME280;47967;51.756;10.174;2022-07-17T14:24:13;100767.16;;;25.20;29.09
62011;BME280;47967;51.756;10.174;2022-07-17T14:28:16;100753.09;;;25.94;28.89
62011;BME280;47967;51.756;10.174;2022-07-17T14:32:19;100754.19;;;25.98;29.47
62011;BME280;47967;51.756;10.174;2022-07-17T14:36:21;100752.00;;;25.69;29.58
62011;BME280;47967;51.756;10.174;2022-07-17T14:40:25;100746.78;;;25.78;29.42
62011;BME280;47967;51.756;10.174;2022-07-17T14:44:29;100751.28;;;26.55;28.41
62011;BME280;47967;51.756;10.174;2022-07-17T14:48:32;100741.28;;;26.59;28.23
62011;BME280;47967;51.756;10.174;2022-07-17T14:52:34;100737.38;;;26.65;28.64
62011;BME280;47967;51.756;10.174;2022-07-17T14:56:38;100730.69;;;26.82;28.86
62011;BME280;47967;51.756;10.174;2022-07-17T15:00:42;100734.31;;;27.17;27.91
62011;BME280;47967;51.756;10.174;2022-07-17T15:04:45;100734.38;;;27.81;26.94
62011;BME280;47967;51.756;10.174;2022-07-17T15:08:47;100724.19;;;27.37;27.93
62011;BME280;47967;51.756;10.174;2022-07-17T15:12:51;100733.50;;;26.66;27.26
62011;BME280;47967;51.756;10.174;2022-07-17T15:16:54;100731.66;;;26.51;28.04
62011;BME280;47967;51.756;10.174;2022-07-17T15:20:56;100729.47;;;26.98;27.49
62011;BME280;47967;51.756;10.174;2022-07-17T15:24:59;100732.97;;;27.54;27.16
62011;BME280;47967;51.756;10.174;2022-07-17T15:29:03;100722.84;;;27.98;27.09
62011;BME280;47967;51.756;10.174;2022-07-17T15:33:06;100722.53;;;29.30;25.51
62011;BME280;47967;51.756;10.174;2022-07-17T15:37:09;100729.50;;;29.08;25.46
62011;BME280;47967;51.756;10.174;2022-07-17T15:41:12;100709.13;;;29.32;25.50
62011;BME280;47967;51.756;10.174;2022-07-17T15:45:16;100705.94;;;29.71;24.51
62011;BME280;47967;51.756;10.174;2022-07-17T15:49:20;100724.50;;;27.99;25.73
62011;BME280;47967;51.756;10.174;2022-07-17T15:53:24;100710.66;;;28.42;25.63
62011;BME280;47967;51.756;10.174;2022-07-17T15:57:27;100712.47;;;28.77;24.71
62011;BME280;47967;51.756;10.174;2022-07-17T16:01:31;100709.78;;;28.47;25.08
62011;BME280;47967;51.756;10.174;2022-07-17T16:05:34;100691.56;;;29.83;24.03
62011;BME280;47967;51.756;10.174;2022-07-17T16:09:37;100687.28;;;29.58;24.30
62011;BME280;47967;51.756;10.174;2022-07-17T16:13:41;100688.28;;;29.48;24.36
62011;BME280;47967;51.756;10.174;2022-07-17T16:17:46;100693.00;;;28.14;25.49
62011;BME280;47967;51.756;10.174;2022-07-17T16:21:48;100692.03;;;28.24;25.24
62011;BME280;47967;51.756;10.174;2022-07-17T16:25:51;100686.00;;;29.17;25.28
62011;BME280;47967;51.756;10.174;2022-07-17T16:29:53;100682.34;;;29.03;26.64
62011;BME280;47967;51.756;10.174;2022-07-17T16:33:58;100688.88;;;28.31;27.57
62011;BME280;47967;51.756;10.174;2022-07-17T16:38:00;100680.84;;;28.10;27.92
62011;BME280;47967;51.756;10.174;2022-07-17T16:42:03;100683.06;;;27.54;28.08
62011;BME280;47967;51.756;10.174;2022-07-17T16:46:06;100670.00;;;27.84;28.20
62011;BME280;47967;51.756;10.174;2022-07-17T16:50:11;100667.59;;;28.02;28.48
62011;BME280;47967;51.756;10.174;2022-07-17T16:54:13;100671.03;;;28.37;28.04
62011;BME280;47967;51.756;10.174;2022-07-17T16:58:16;100674.59;;;28.62;28.06
62011;BME280;47967;51.756;10.174;2022-07-17T17:02:20;100675.78;;;28.80;28.19
62011;BME280;47967;51.756;10.174;2022-07-17T17:06:24;100670.84;;;28.33;28.29
62011;BME280;47967;51.756;10.174;2022-07-17T17:10:27;100675.97;;;27.96;28.89
62011;BME280;47967;51.756;10.174;2022-07-17T17:14:30;100661.97;;;27.24;29.52
62011;BME280;47967;51.756;10.174;2022-07-17T17:18:33;100657.78;;;27.26;30.00
62011;BME280;47967;51.756;10.174;2022-07-17T17:22:37;100655.03;;;26.92;29.84
62011;BME280;47967;51.756;10.174;2022-07-17T17:26:40;100655.16;;;26.71;30.35
62011;BME280;47967;51.756;10.174;2022-07-17T17:30:42;100659.94;;;26.55;30.33
62011;BME280;47967;51.756;10.174;2022-07-17T17:34:45;100655.75;;;26.02;31.06
62011;BME280;47967;51.756;10.174;2022-07-17T17:38:49;100653.81;;;25.98;31.20
62011;BME280;47967;51.756;10.174;2022-07-17T17:42:52;100650.94;;;26.29;30.80
62011;BME280;47967;51.756;10.174;2022-07-17T17:46:55;100642.38;;;26.25;30.95
62011;BME280;47967;51.756;10.174;2022-07-17T17:50:58;100648.09;;;25.68;31.77
62011;BME280;47967;51.756;10.174;2022-07-17T17:55:03;100652.81;;;25.21;32.31
62011;BME280;47967;51.756;10.174;2022-07-17T17:59:08;100647.31;;;24.85;32.67
62011;BME280;47967;51.756;10.174;2022-07-17T18:03:13;100641.22;;;24.78;33.27
62011;BME280;47967;51.756;10.174;2022-07-17T18:07:16;100641.97;;;24.63;33.18
62011;BME280;47967;51.756;10.174;2022-07-17T18:11:19;100640.88;;;24.64;33.82
62011;BME280;47967;51.756;10.174;2022-07-17T18:15:24;100647.41;;;24.27;34.45
62011;BME280;47967;51.756;10.174;2022-07-17T18:19:26;100648.69;;;24.04;34.75
62011;BME280;47967;51.756;10.174;2022-07-17T18:23:29;100654.28;;;23.76;35.51
62011;BME280;47967;51.756;10.174;2022-07-17T18:27:39;100660.66;;;23.39;35.88
62011;BME280;47967;51.756;10.174;2022-07-17T18:31:41;100650.69;;;23.28;36.67
62011;BME280;47967;51.756;10.174;2022-07-17T18:35:44;100655.28;;;22.95;37.03
62011;BME280;47967;51.756;10.174;2022-07-17T18:39:47;100657.03;;;22.74;37.53
62011;BME280;47967;51.756;10.174;2022-07-17T18:43:51;100646.09;;;22.51;37.77
62011;BME280;47967;51.756;10.174;2022-07-17T18:47:53;100649.66;;;22.30;38.26
62011;BME280;47967;51.756;10.174;2022-07-17T18:51:59;100651.66;;;22.12;38.30
62011;BME280;47967;51.756;10.174;2022-07-17T18:56:01;100655.84;;;21.75;38.36
62011;BME280;47967;51.756;10.174;2022-07-17T19:00:06;100663.56;;;21.62;39.33
62011;BME280;47967;51.756;10.174;2022-07-17T19:04:09;100662.50;;;21.28;39.69
62011;BME280;47967;51.756;10.174;2022-07-17T19:08:12;100666.72;;;21.02;39.87
62011;BME280;47967;51.756;10.174;2022-07-17T19:12:15;100666.72;;;21.02;39.94
62011;BME280;47967;51.756;10.174;2022-07-17T19:16:19;100676.19;;;20.94;39.37
62011;BME280;47967;51.756;10.174;2022-07-17T19:20:21;100672.69;;;20.82;39.29
62011;BME280;47967;51.756;10.174;2022-07-17T19:24:25;100668.19;;;20.76;39.33
62011;BME280;47967;51.756;10.174;2022-07-17T19:28:28;100679.91;;;20.59;39.92
62011;BME280;47967;51.756;10.174;2022-07-17T19:32:32;100696.41;;;20.47;40.38
62011;BME280;47967;51.756;10.174;2022-07-17T19:36:35;100692.41;;;20.26;40.78
62011;BME280;47967;51.756;10.174;2022-07-17T19:40:38;100703.16;;;20.04;41.88
62011;BME280;47967;51.756;10.174;2022-07-17T19:44:40;100705.66;;;19.58;42.46
62011;BME280;47967;51.756;10.174;2022-07-17T19:48:44;100707.25;;;19.24;43.23
62011;BME280;47967;51.756;10.174;2022-07-17T19:52:49;100706.97;;;19.01;43.76
62011;BME280;47967;51.756;10.174;2022-07-17T19:56:51;100711.97;;;19.04;44.60
62011;BME280;47967;51.756;10.174;2022-07-17T20:00:54;100710.66;;;18.77;45.65
62011;BME280;47967;51.756;10.174;2022-07-17T20:04:58;100714.25;;;18.59;46.60
62011;BME280;47967;51.756;10.174;2022-07-17T20:09:00;100711.53;;;18.40;46.81
62011;BME280;47967;51.756;10.174;2022-07-17T20:13:03;100713.44;;;18.02;47.83
62011;BME280;47967;51.756;10.174;2022-07-17T20:17:05;100720.19;;;17.74;48.17
62011;BME280;47967;51.756;10.174;2022-07-17T20:21:09;100726.53;;;17.43;49.00
62011;BME280;47967;51.756;10.174;2022-07-17T20:25:12;100727.22;;;17.38;49.00
62011;BME280;47967;51.756;10.174;2022-07-17T20:29:15;100725.09;;;17.40;50.29
62011;BME280;47967;51.756;10.174;2022-07-17T20:33:17;100723.06;;;17.29;51.13
62011;BME280;47967;51.756;10.174;2022-07-17T20:37:21;100726.25;;;16.94;51.24
62011;BME280;47967;51.756;10.174;2022-07-17T20:41:24;100730.16;;;16.59;51.95
62011;BME280;47967;51.756;10.174;2022-07-17T20:45:26;100732.94;;;16.39;51.76
62011;BME280;47967;51.756;10.174;2022-07-17T20:49:29;100736.16;;;16.23;52.04
62011;BME280;47967;51.756;10.174;2022-07-17T20:53:33;100738.28;;;16.07;53.35
62011;BME280;47967;51.756;10.174;2022-07-17T20:57:35;100743.13;;;15.78;54.25
62011;BME280;47967;51.756;10.174;2022-07-17T21:01:44;100743.34;;;15.57;55.37